sensor_id;sensor_type;location;lat;lon;timestamp;P1;durP1;ratioP1;P2;durP2;ratioP2
48516;SDS011;34310;51.904;4.256;2024-02-21T00:02:21;6.40;;;3.35;;
48516;SDS011;34310;51.904;4.256;2024-02-21T00:04:48;7.20;;;3.58;;
48516;SDS011;34310;51.904;4.256;2024-02-21T00:07:15;7.03;;;3.15;;
48516;SDS011;34310;51.904;4.256;2024-02-21T00:09:41;8.48;;;3.33;;
48516;SDS011;34310;51.904;4.256;2024-02-21T00:12:08;7.43;;;3.15;;
48516;SDS011;34310;51.904;4.256;2024-02-21T00:14:35;6.97;;;3.45;;
48516;SDS011;34310;51.904;4.256;2024-02-21T00:17:06;7.22;;;3.20;;
48516;SDS011;34310;51.904;4.256;2024-02-21T00:19:33;5.72;;;2.70;;
48516;SDS011;34310;51.904;4.256;2024-02-21T00:22:00;6.88;;;3.03;;
48516;SDS011;34310;51.904;4.256;2024-02-21T00:24:27;5.90;;;2.83;;
48516;SDS011;34310;51.904;4.256;2024-02-21T00:26:53;6.32;;;2.90;;
48516;SDS011;34310;51.904;4.256;2024-02-21T00:29:20;6.57;;;2.80;;
48516;SDS011;34310;51.904;4.256;2024-02-21T00:31:47;7.22;;;2.72;;
48516;SDS011;34310;51.904;4.256;2024-02-21T00:34:15;8.13;;;2.92;;
48516;SDS011;34310;51.904;4.256;2024-02-21T00:36:45;5.80;;;2.58;;
48516;SDS011;34310;51.904;4.256;2024-02-21T00:39:16;6.22;;;2.92;;
48516;SDS011;34310;51.904;4.256;2024-02-21T00:41:42;6.78;;;2.45;;
48516;SDS011;34310;51.904;4.256;2024-02-21T00:44:14;6.60;;;2.83;;
48516;SDS011;34310;51.904;4.256;2024-02-21T00:46:42;5.57;;;2.80;;
48516;SDS011;34310;51.904;4.256;2024-02-21T00:49:14;7.28;;;2.70;;
48516;SDS011;34310;51.904;4.256;2024-02-21T00:51:41;8.50;;;2.42;;
48516;SDS011;34310;51.904;4.256;2024-02-21T00:54:17;6.30;;;2.50;;
48516;SDS011;34310;51.904;4.256;2024-02-21T00:56:49;6.05;;;2.47;;
48516;SDS011;34310;51.904;4.256;2024-02-21T00:59:22;6.32;;;2.45;;
48516;SDS011;34310;51.904;4.256;2024-02-21T01:01:49;6.50;;;2.35;;
48516;SDS011;34310;51.904;4.256;2024-02-21T01:04:15;5.03;;;2.40;;
48516;SDS011;34310;51.904;4.256;2024-02-21T01:06:42;6.78;;;2.47;;
48516;SDS011;34310;51.904;4.256;2024-02-21T01:09:09;4.60;;;2.22;;
48516;SDS011;34310;51.904;4.256;2024-02-21T01:11:36;6.90;;;3.17;;
48516;SDS011;34310;51.904;4.256;2024-02-21T01:14:02;5.03;;;2.40;;
48516;SDS011;34310;51.904;4.256;2024-02-21T01:16:29;6.68;;;2.30;;
48516;SDS011;34310;51.904;4.256;2024-02-21T01:18:55;5.57;;;2.35;;
48516;SDS011;34310;51.904;4.256;2024-02-21T01:21:22;5.13;;;2.28;;
48516;SDS011;34310;51.904;4.256;2024-02-21T01:23:49;8.40;;;2.13;;
48516;SDS011;34310;51.904;4.256;2024-02-21T01:26:15;5.68;;;2.30;;
48516;SDS011;34310;51.904;4.256;2024-02-21T01:28:42;5.72;;;2.42;;
48516;SDS011;34310;51.904;4.256;2024-02-21T01:31:08;4.53;;;2.10;;
48516;SDS011;34310;51.904;4.256;2024-02-21T01:33:35;3.70;;;2.00;;
48516;SDS011;34310;51.904;4.256;2024-02-21T01:36:02;6.47;;;2.10;;
48516;SDS011;34310;51.904;4.256;2024-02-21T01:38:29;6.28;;;2.58;;
48516;SDS011;34310;51.904;4.256;2024-02-21T01:40:56;4.82;;;2.08;;
48516;SDS011;34310;51.904;4.256;2024-02-21T01:43:22;4.38;;;2.00;;
48516;SDS011;34310;51.904;4.256;2024-02-21T01:45:50;6.70;;;2.22;;
48516;SDS011;34310;51.904;4.256;2024-02-21T01:48:21;4.20;;;2.10;;
48516;SDS011;34310;51.904;4.256;2024-02-21T01:50:55;3.65;;;1.80;;
48516;SDS011;34310;51.904;4.256;2024-02-21T01:53:23;4.72;;;2.17;;
48516;SDS011;34310;51.904;4.256;2024-02-21T01:56:01;6.80;;;2.08;;
48516;SDS011;34310;51.904;4.256;2024-02-21T01:58:28;3.95;;;2.03;;
48516;SDS011;34310;51.904;4.256;2024-02-21T02:00:56;3.78;;;1.70;;
48516;SDS011;34310;51.904;4.256;2024-02-21T02:03:23;4.72;;;2.00;;
48516;SDS011;34310;51.904;4.256;2024-02-21T02:05:50;4.10;;;1.88;;
48516;SDS011;34310;51.904;4.256;2024-02-21T02:08:17;3.55;;;1.70;;
48516;SDS011;34310;51.904;4.256;2024-02-21T02:10:45;5.30;;;1.98;;
48516;SDS011;34310;51.904;4.256;2024-02-21T02:13:12;3.70;;;1.70;;
48516;SDS011;34310;51.904;4.256;2024-02-21T02:15:43;4.30;;;1.88;;
48516;SDS011;34310;51.904;4.256;2024-02-21T02:18:11;4.25;;;1.77;;
48516;SDS011;34310;51.904;4.256;2024-02-21T02:20:39;3.95;;;1.90;;
48516;SDS011;34310;51.904;4.256;2024-02-21T02:25:51;4.28;;;1.90;;
48516;SDS011;34310;51.904;4.256;2024-02-21T02:28:19;3.80;;;1.80;;
48516;SDS011;34310;51.904;4.256;2024-02-21T02:30:46;4.55;;;2.00;;
48516;SDS011;34310;51.904;4.256;2024-02-21T02:33:14;3.90;;;1.92;;
48516;SDS011;34310;51.904;4.256;2024-02-21T02:35:45;4.95;;;1.67;;
48516;SDS011;34310;51.904;4.256;2024-02-21T02:38:12;3.45;;;1.73;;
48516;SDS011;34310;51.904;4.256;2024-02-21T02:40:39;3.40;;;1.50;;
48516;SDS011;34310;51.904;4.256;2024-02-21T02:43:05;3.53;;;1.65;;
48516;SDS011;34310;51.904;4.256;2024-02-21T02:45:32;3.30;;;1.70;;
48516;SDS011;34310;51.904;4.256;2024-02-21T02:47:59;3.35;;;1.90;;
48516;SDS011;34310;51.904;4.256;2024-02-21T02:50:26;4.22;;;1.70;;
48516;SDS011;34310;51.904;4.256;2024-02-21T02:52:53;3.10;;;1.88;;
48516;SDS011;34310;51.904;4.256;2024-02-21T02:55:20;3.83;;;1.83;;
48516;SDS011;34310;51.904;4.256;2024-02-21T02:57:53;4.05;;;1.80;;
48516;SDS011;34310;51.904;4.256;2024-02-21T03:00:21;5.10;;;1.80;;
48516;SDS011;34310;51.904;4.256;2024-02-21T03:02:49;3.30;;;1.60;;
48516;SDS011;34310;51.904;4.256;2024-02-21T03:05:17;3.80;;;1.73;;
48516;SDS011;34310;51.904;4.256;2024-02-21T03:07:45;3.53;;;1.65;;
48516;SDS011;34310;51.904;4.256;2024-02-21T03:10:13;3.58;;;1.73;;
48516;SDS011;34310;51.904;4.256;2024-02-21T03:12:40;4.07;;;1.75;;
48516;SDS011;34310;51.904;4.256;2024-02-21T03:15:07;2.92;;;1.70;;
48516;SDS011;34310;51.904;4.256;2024-02-21T03:17:40;4.60;;;1.70;;
48516;SDS011;34310;51.904;4.256;2024-02-21T03:20:11;3.92;;;1.70;;
48516;SDS011;34310;51.904;4.256;2024-02-21T03:22:39;2.33;;;1.55;;
48516;SDS011;34310;51.904;4.256;2024-02-21T03:25:06;3.70;;;1.70;;
48516;SDS011;34310;51.904;4.256;2024-02-21T03:27:34;3.15;;;1.85;;
48516;SDS011;34310;51.904;4.256;2024-02-21T03:30:00;3.42;;;1.38;;
48516;SDS011;34310;51.904;4.256;2024-02-21T03:32:27;3.25;;;1.50;;
48516;SDS011;34310;51.904;4.256;2024-02-21T03:34:54;2.50;;;1.50;;
48516;SDS011;34310;51.904;4.256;2024-02-21T03:37:21;2.05;;;1.55;;
48516;SDS011;34310;51.904;4.256;2024-02-21T03:39:47;2.00;;;1.60;;
48516;SDS011;34310;51.904;4.256;2024-02-21T03:42:14;2.58;;;1.58;;
48516;SDS011;34310;51.904;4.256;2024-02-21T03:44:44;4.00;;;1.83;;
48516;SDS011;34310;51.904;4.256;2024-02-21T03:47:19;2.42;;;1.42;;
48516;SDS011;34310;51.904;4.256;2024-02-21T03:50:01;3.00;;;1.75;;
48516;SDS011;34310;51.904;4.256;2024-02-21T03:52:37;2.42;;;1.58;;
48516;SDS011;34310;51.904;4.256;2024-02-21T03:55:03;4.03;;;2.42;;
48516;SDS011;34310;51.904;4.256;2024-02-21T03:57:31;3.20;;;1.80;;
48516;SDS011;34310;51.904;4.256;2024-02-21T03:59:57;3.58;;;1.85;;
48516;SDS011;34310;51.904;4.256;2024-02-21T04:02:24;2.33;;;1.70;;
48516;SDS011;34310;51.904;4.256;2024-02-21T04:04:50;2.63;;;1.75;;
48516;SDS011;34310;51.904;4.256;2024-02-21T04:07:17;2.45;;;1.58;;
48516;SDS011;34310;51.904;4.256;2024-02-21T04:09:43;3.47;;;1.70;;
48516;SDS011;34310;51.904;4.256;2024-02-21T04:12:10;2.45;;;1.75;;
48516;SDS011;34310;51.904;4.256;2024-02-21T04:14:37;2.80;;;1.77;;
48516;SDS011;34310;51.904;4.256;2024-02-21T04:17:03;3.78;;;1.70;;
48516;SDS011;34310;51.904;4.256;2024-02-21T04:19:30;2.92;;;1.70;;
48516;SDS011;34310;51.904;4.256;2024-02-21T04:21:57;2.80;;;1.60;;
48516;SDS011;34310;51.904;4.256;2024-02-21T04:24:23;2.85;;;1.63;;
48516;SDS011;34310;51.904;4.256;2024-02-21T04:26:50;2.78;;;1.92;;
48516;SDS011;34310;51.904;4.256;2024-02-21T04:29:16;2.33;;;1.70;;
48516;SDS011;34310;51.904;4.256;2024-02-21T04:31:43;2.65;;;1.80;;
48516;SDS011;34310;51.904;4.256;2024-02-21T04:34:11;3.55;;;1.60;;
48516;SDS011;34310;51.904;4.256;2024-02-21T04:36:37;3.75;;;1.90;;
48516;SDS011;34310;51.904;4.256;2024-02-21T04:39:04;2.13;;;1.70;;
48516;SDS011;34310;51.904;4.256;2024-02-21T04:41:33;3.67;;;1.88;;
48516;SDS011;34310;51.904;4.256;2024-02-21T04:44:00;2.35;;;1.70;;
48516;SDS011;34310;51.904;4.256;2024-02-21T04:46:26;2.58;;;2.05;;
48516;SDS011;34310;51.904;4.256;2024-02-21T04:48:53;3.17;;;1.98;;
48516;SDS011;34310;51.904;4.256;2024-02-21T04:51:20;2.58;;;1.88;;
48516;SDS011;34310;51.904;4.256;2024-02-21T04:53:46;3.30;;;1.90;;
48516;SDS011;34310;51.904;4.256;2024-02-21T04:56:13;3.25;;;2.35;;
48516;SDS011;34310;51.904;4.256;2024-02-21T04:58:39;2.65;;;2.13;;
48516;SDS011;34310;51.904;4.256;2024-02-21T05:01:06;3.50;;;2.28;;
48516;SDS011;34310;51.904;4.256;2024-02-21T05:03:33;2.58;;;2.03;;
48516;SDS011;34310;51.904;4.256;2024-02-21T05:05:59;2.88;;;2.25;;
48516;SDS011;34310;51.904;4.256;2024-02-21T05:08:26;3.35;;;2.20;;
48516;SDS011;34310;51.904;4.256;2024-02-21T05:10:55;3.00;;;2.08;;
48516;SDS011;34310;51.904;4.256;2024-02-21T05:13:25;4.13;;;2.08;;
48516;SDS011;34310;51.904;4.256;2024-02-21T05:15:53;3.80;;;2.40;;
48516;SDS011;34310;51.904;4.256;2024-02-21T05:18:24;2.70;;;2.38;;
48516;SDS011;34310;51.904;4.256;2024-02-21T05:20:52;3.00;;;2.33;;
48516;SDS011;34310;51.904;4.256;2024-02-21T05:23:19;3.75;;;2.78;;
48516;SDS011;34310;51.904;4.256;2024-02-21T05:25:46;4.38;;;2.60;;
48516;SDS011;34310;51.904;4.256;2024-02-21T05:28:12;2.88;;;2.42;;
48516;SDS011;34310;51.904;4.256;2024-02-21T05:30:39;3.20;;;2.70;;
48516;SDS011;34310;51.904;4.256;2024-02-21T05:33:06;3.25;;;2.65;;
48516;SDS011;34310;51.904;4.256;2024-02-21T05:35:42;4.13;;;2.90;;
48516;SDS011;34310;51.904;4.256;2024-02-21T05:38:12;4.78;;;2.97;;
48516;SDS011;34310;51.904;4.256;2024-02-21T05:40:53;4.43;;;3.20;;
48516;SDS011;34310;51.904;4.256;2024-02-21T05:43:27;4.85;;;3.10;;
48516;SDS011;34310;51.904;4.256;2024-02-21T05:45:54;4.40;;;3.50;;
48516;SDS011;34310;51.904;4.256;2024-02-21T05:48:24;4.10;;;3.25;;
48516;SDS011;34310;51.904;4.256;2024-02-21T05:50:51;5.13;;;3.65;;
48516;SDS011;34310;51.904;4.256;2024-02-21T05:53:18;4.57;;;3.60;;
48516;SDS011;34310;51.904;4.256;2024-02-21T05:55:44;4.50;;;3.95;;
48516;SDS011;34310;51.904;4.256;2024-02-21T05:58:11;4.68;;;3.60;;
48516;SDS011;34310;51.904;4.256;2024-02-21T06:00:39;6.18;;;4.50;;
48516;SDS011;34310;51.904;4.256;2024-02-21T06:03:06;5.63;;;4.45;;
48516;SDS011;34310;51.904;4.256;2024-02-21T06:05:36;4.97;;;4.25;;
48516;SDS011;34310;51.904;4.256;2024-02-21T06:08:04;5.40;;;4.18;;
48516;SDS011;34310;51.904;4.256;2024-02-21T06:10:31;6.15;;;4.18;;
48516;SDS011;34310;51.904;4.256;2024-02-21T06:12:57;5.72;;;4.00;;
48516;SDS011;34310;51.904;4.256;2024-02-21T06:15:32;6.10;;;4.47;;
48516;SDS011;34310;51.904;4.256;2024-02-21T06:17:58;5.85;;;4.53;;
48516;SDS011;34310;51.904;4.256;2024-02-21T06:20:29;5.85;;;4.65;;
48516;SDS011;34310;51.904;4.256;2024-02-21T06:22:56;7.20;;;4.85;;
48516;SDS011;34310;51.904;4.256;2024-02-21T06:25:31;5.75;;;4.75;;
48516;SDS011;34310;51.904;4.256;2024-02-21T06:27:57;7.43;;;4.93;;
48516;SDS011;34310;51.904;4.256;2024-02-21T06:30:45;5.82;;;4.60;;
48516;SDS011;34310;51.904;4.256;2024-02-21T06:33:12;5.95;;;4.95;;
48516;SDS011;34310;51.904;4.256;2024-02-21T06:35:39;7.97;;;5.18;;
48516;SDS011;34310;51.904;4.256;2024-02-21T06:38:05;6.22;;;4.70;;
48516;SDS011;34310;51.904;4.256;2024-02-21T06:40:32;5.03;;;4.47;;
48516;SDS011;34310;51.904;4.256;2024-02-21T06:42:59;6.63;;;4.88;;
48516;SDS011;34310;51.904;4.256;2024-02-21T06:45:25;7.03;;;4.80;;
48516;SDS011;34310;51.904;4.256;2024-02-21T06:47:52;5.95;;;4.88;;
48516;SDS011;34310;51.904;4.256;2024-02-21T06:50:21;5.75;;;5.10;;
48516;SDS011;34310;51.904;4.256;2024-02-21T06:52:51;6.35;;;4.90;;
48516;SDS011;34310;51.904;4.256;2024-02-21T06:55:18;5.65;;;4.60;;
48516;SDS011;34310;51.904;4.256;2024-02-21T06:57:44;7.55;;;5.32;;
48516;SDS011;34310;51.904;4.256;2024-02-21T07:00:11;6.28;;;4.88;;
48516;SDS011;34310;51.904;4.256;2024-02-21T07:02:38;9.18;;;5.10;;
48516;SDS011;34310;51.904;4.256;2024-02-21T07:05:05;10.23;;;5.43;;
48516;SDS011;34310;51.904;4.256;2024-02-21T07:07:32;10.10;;;6.80;;
48516;SDS011;34310;51.904;4.256;2024-02-21T07:10:02;9.95;;;5.53;;
48516;SDS011;34310;51.904;4.256;2024-02-21T07:12:28;12.07;;;5.97;;
48516;SDS011;34310;51.904;4.256;2024-02-21T07:14:55;9.15;;;6.00;;
48516;SDS011;34310;51.904;4.256;2024-02-21T07:17:21;14.07;;;6.30;;
48516;SDS011;34310;51.904;4.256;2024-02-21T07:19:48;11.00;;;6.35;;
48516;SDS011;34310;51.904;4.256;2024-02-21T07:22:15;9.70;;;5.88;;
48516;SDS011;34310;51.904;4.256;2024-02-21T07:24:41;9.60;;;6.10;;
48516;SDS011;34310;51.904;4.256;2024-02-21T07:27:10;8.65;;;5.75;;
48516;SDS011;34310;51.904;4.256;2024-02-21T07:29:37;10.27;;;6.20;;
48516;SDS011;34310;51.904;4.256;2024-02-21T07:32:03;8.55;;;6.28;;
48516;SDS011;34310;51.904;4.256;2024-02-21T07:34:30;9.75;;;6.40;;
48516;SDS011;34310;51.904;4.256;2024-02-21T07:36:57;12.73;;;6.18;;
48516;SDS011;34310;51.904;4.256;2024-02-21T07:39:24;11.55;;;6.32;;
48516;SDS011;34310;51.904;4.256;2024-02-21T07:41:53;9.75;;;6.70;;
48516;SDS011;34310;51.904;4.256;2024-02-21T07:44:24;10.77;;;6.30;;
48516;SDS011;34310;51.904;4.256;2024-02-21T07:46:51;12.40;;;6.43;;
48516;SDS011;34310;51.904;4.256;2024-02-21T07:49:17;9.75;;;6.47;;
48516;SDS011;34310;51.904;4.256;2024-02-21T07:51:44;9.90;;;5.78;;
48516;SDS011;34310;51.904;4.256;2024-02-21T07:54:10;9.50;;;6.25;;
48516;SDS011;34310;51.904;4.256;2024-02-21T07:56:42;8.50;;;5.97;;
48516;SDS011;34310;51.904;4.256;2024-02-21T07:59:08;12.50;;;6.53;;
48516;SDS011;34310;51.904;4.256;2024-02-21T08:01:35;10.45;;;6.43;;
48516;SDS011;34310;51.904;4.256;2024-02-21T08:04:02;11.15;;;6.30;;
48516;SDS011;34310;51.904;4.256;2024-02-21T08:06:35;7.57;;;5.75;;
48516;SDS011;34310;51.904;4.256;2024-02-21T08:09:05;8.68;;;5.95;;
48516;SDS011;34310;51.904;4.256;2024-02-21T08:14:09;8.02;;;5.65;;
48516;SDS011;34310;51.904;4.256;2024-02-21T08:16:36;7.93;;;5.55;;
48516;SDS011;34310;51.904;4.256;2024-02-21T08:19:03;8.25;;;5.80;;
48516;SDS011;34310;51.904;4.256;2024-02-21T08:21:44;8.90;;;5.90;;
48516;SDS011;34310;51.904;4.256;2024-02-21T08:24:16;8.20;;;5.57;;
48516;SDS011;34310;51.904;4.256;2024-02-21T08:26:52;9.38;;;5.82;;
48516;SDS011;34310;51.904;4.256;2024-02-21T08:29:19;7.72;;;5.63;;
48516;SDS011;34310;51.904;4.256;2024-02-21T08:31:53;8.35;;;5.75;;
48516;SDS011;34310;51.904;4.256;2024-02-21T08:36:55;8.38;;;6.20;;
48516;SDS011;34310;51.904;4.256;2024-02-21T08:39:22;7.35;;;5.88;;
48516;SDS011;34310;51.904;4.256;2024-02-21T08:41:48;8.90;;;5.60;;
48516;SDS011;34310;51.904;4.256;2024-02-21T08:44:23;7.30;;;5.25;;
48516;SDS011;34310;51.904;4.256;2024-02-21T08:46:50;8.30;;;5.95;;
48516;SDS011;34310;51.904;4.256;2024-02-21T08:49:16;8.98;;;5.35;;
48516;SDS011;34310;51.904;4.256;2024-02-21T08:51:43;7.28;;;5.35;;
48516;SDS011;34310;51.904;4.256;2024-02-21T08:54:24;7.00;;;5.28;;
48516;SDS011;34310;51.904;4.256;2024-02-21T08:56:50;7.68;;;5.35;;
48516;SDS011;34310;51.904;4.256;2024-02-21T08:59:17;7.78;;;5.38;;
48516;SDS011;34310;51.904;4.256;2024-02-21T09:01:43;8.05;;;5.50;;
48516;SDS011;34310;51.904;4.256;2024-02-21T09:04:13;8.27;;;5.78;;
48516;SDS011;34310;51.904;4.256;2024-02-21T09:06:41;7.78;;;5.75;;
48516;SDS011;34310;51.904;4.256;2024-02-21T09:09:08;6.63;;;5.53;;
48516;SDS011;34310;51.904;4.256;2024-02-21T09:11:35;7.70;;;5.57;;
48516;SDS011;34310;51.904;4.256;2024-02-21T09:14:02;6.70;;;5.13;;
48516;SDS011;34310;51.904;4.256;2024-02-21T09:16:35;7.60;;;5.32;;
48516;SDS011;34310;51.904;4.256;2024-02-21T09:19:07;6.75;;;4.82;;
48516;SDS011;34310;51.904;4.256;2024-02-21T09:21:37;5.97;;;5.03;;
48516;SDS011;34310;51.904;4.256;2024-02-21T09:24:05;6.05;;;5.15;;
48516;SDS011;34310;51.904;4.256;2024-02-21T09:26:35;6.47;;;5.15;;
48516;SDS011;34310;51.904;4.256;2024-02-21T09:29:05;7.32;;;5.38;;
48516;SDS011;34310;51.904;4.256;2024-02-21T09:31:31;6.22;;;5.30;;
48516;SDS011;34310;51.904;4.256;2024-02-21T09:34:05;6.63;;;4.75;;
48516;SDS011;34310;51.904;4.256;2024-02-21T09:36:32;5.82;;;4.93;;
48516;SDS011;34310;51.904;4.256;2024-02-21T09:38:58;8.00;;;5.47;;
48516;SDS011;34310;51.904;4.256;2024-02-21T09:41:25;6.45;;;5.15;;
48516;SDS011;34310;51.904;4.256;2024-02-21T09:43:53;5.57;;;4.95;;
48516;SDS011;34310;51.904;4.256;2024-02-21T09:46:21;5.45;;;4.88;;
48516;SDS011;34310;51.904;4.256;2024-02-21T09:51:49;6.88;;;4.68;;
48516;SDS011;34310;51.904;4.256;2024-02-21T09:54:20;6.35;;;5.13;;
48516;SDS011;34310;51.904;4.256;2024-02-21T09:56:48;6.25;;;4.88;;
48516;SDS011;34310;51.904;4.256;2024-02-21T09:59:15;5.43;;;4.85;;
48516;SDS011;34310;51.904;4.256;2024-02-21T10:01:46;5.90;;;4.47;;
48516;SDS011;34310;51.904;4.256;2024-02-21T10:04:12;5.35;;;4.70;;
48516;SDS011;34310;51.904;4.256;2024-02-21T10:06:49;5.65;;;4.47;;
48516;SDS011;34310;51.904;4.256;2024-02-21T10:09:26;5.20;;;4.70;;
48516;SDS011;34310;51.904;4.256;2024-02-21T10:12:09;6.22;;;4.70;;
48516;SDS011;34310;51.904;4.256;2024-02-21T10:14:40;5.07;;;4.45;;
48516;SDS011;34310;51.904;4.256;2024-02-21T10:17:15;4.85;;;4.35;;
48516;SDS011;34310;51.904;4.256;2024-02-21T10:20:07;6.32;;;4.38;;
48516;SDS011;34310;51.904;4.256;2024-02-21T10:22:59;5.50;;;4.72;;
48516;SDS011;34310;51.904;4.256;2024-02-21T10:25:37;6.63;;;4.80;;
48516;SDS011;34310;51.904;4.256;2024-02-21T10:28:17;6.50;;;4.72;;
48516;SDS011;34310;51.904;4.256;2024-02-21T10:30:54;6.00;;;4.70;;
48516;SDS011;34310;51.904;4.256;2024-02-21T10:33:21;5.20;;;4.68;;
48516;SDS011;34310;51.904;4.256;2024-02-21T10:35:51;5.65;;;4.47;;
48516;SDS011;34310;51.904;4.256;2024-02-21T10:38:55;5.00;;;4.22;;
48516;SDS011;34310;51.904;4.256;2024-02-21T10:41:23;5.43;;;4.63;;
48516;SDS011;34310;51.904;4.256;2024-02-21T10:43:51;5.05;;;4.55;;
48516;SDS011;34310;51.904;4.256;2024-02-21T10:46:22;5.38;;;4.40;;
48516;SDS011;34310;51.904;4.256;2024-02-21T10:51:40;6.60;;;4.43;;
48516;SDS011;34310;51.904;4.256;2024-02-21T10:56:59;6.05;;;4.70;;
48516;SDS011;34310;51.904;4.256;2024-02-21T10:59:30;6.55;;;5.18;;
48516;SDS011;34310;51.904;4.256;2024-02-21T11:01:58;6.18;;;5.07;;
48516;SDS011;34310;51.904;4.256;2024-02-21T11:04:28;5.63;;;5.07;;
48516;SDS011;34310;51.904;4.256;2024-02-21T11:07:00;5.93;;;5.32;;
48516;SDS011;34310;51.904;4.256;2024-02-21T11:09:32;5.63;;;5.10;;
48516;SDS011;34310;51.904;4.256;2024-02-21T11:12:02;6.40;;;5.53;;
48516;SDS011;34310;51.904;4.256;2024-02-21T11:14:31;6.88;;;5.40;;
48516;SDS011;34310;51.904;4.256;2024-02-21T11:16:58;5.75;;;5.25;;
48516;SDS011;34310;51.904;4.256;2024-02-21T11:19:26;7.10;;;5.43;;
48516;SDS011;34310;51.904;4.256;2024-02-21T11:21:54;5.88;;;5.20;;
48516;SDS011;34310;51.904;4.256;2024-02-21T11:24:40;7.63;;;5.53;;
48516;SDS011;34310;51.904;4.256;2024-02-21T11:32:14;5.97;;;5.20;;
48516;SDS011;34310;51.904;4.256;2024-02-21T11:34:58;6.50;;;5.00;;
48516;SDS011;34310;51.904;4.256;2024-02-21T11:37:25;5.53;;;4.80;;
48516;SDS011;34310;51.904;4.256;2024-02-21T11:39:52;5.85;;;4.97;;
48516;SDS011;34310;51.904;4.256;2024-02-21T11:42:18;6.60;;;4.97;;
48516;SDS011;34310;51.904;4.256;2024-02-21T11:44:45;5.88;;;4.40;;
48516;SDS011;34310;51.904;4.256;2024-02-21T11:47:11;5.78;;;4.72;;
48516;SDS011;34310;51.904;4.256;2024-02-21T11:49:47;6.05;;;4.88;;
48516;SDS011;34310;51.904;4.256;2024-02-21T11:52:15;6.03;;;4.68;;
48516;SDS011;34310;51.904;4.256;2024-02-21T11:54:42;6.30;;;4.80;;
48516;SDS011;34310;51.904;4.256;2024-02-21T11:57:09;6.65;;;4.95;;
48516;SDS011;34310;51.904;4.256;2024-02-21T11:59:36;5.57;;;4.32;;
48516;SDS011;34310;51.904;4.256;2024-02-21T12:02:03;6.28;;;4.97;;
48516;SDS011;34310;51.904;4.256;2024-02-21T12:04:30;5.32;;;4.65;;
48516;SDS011;34310;51.904;4.256;2024-02-21T12:06:57;5.00;;;4.50;;
48516;SDS011;34310;51.904;4.256;2024-02-21T12:09:25;6.60;;;4.60;;
48516;SDS011;34310;51.904;4.256;2024-02-21T12:11:58;6.43;;;4.93;;
48516;SDS011;34310;51.904;4.256;2024-02-21T12:14:25;5.05;;;4.55;;
48516;SDS011;34310;51.904;4.256;2024-02-21T12:16:52;6.82;;;4.75;;
48516;SDS011;34310;51.904;4.256;2024-02-21T12:19:18;5.18;;;4.38;;
48516;SDS011;34310;51.904;4.256;2024-02-21T12:21:47;7.95;;;5.03;;
48516;SDS011;34310;51.904;4.256;2024-02-21T12:24:15;6.22;;;5.13;;
48516;SDS011;34310;51.904;4.256;2024-02-21T12:26:44;4.80;;;4.30;;
48516;SDS011;34310;51.904;4.256;2024-02-21T12:29:10;5.20;;;4.35;;
48516;SDS011;34310;51.904;4.256;2024-02-21T12:31:37;6.43;;;4.05;;
48516;SDS011;34310;51.904;4.256;2024-02-21T12:34:05;5.60;;;4.50;;
48516;SDS011;34310;51.904;4.256;2024-02-21T12:36:32;5.05;;;4.55;;
48516;SDS011;34310;51.904;4.256;2024-02-21T12:38:59;4.65;;;3.97;;
48516;SDS011;34310;51.904;4.256;2024-02-21T12:41:26;5.57;;;4.20;;
48516;SDS011;34310;51.904;4.256;2024-02-21T12:43:53;4.30;;;3.90;;
48516;SDS011;34310;51.904;4.256;2024-02-21T12:46:19;4.22;;;3.80;;
48516;SDS011;34310;51.904;4.256;2024-02-21T12:48:46;4.30;;;3.88;;
48516;SDS011;34310;51.904;4.256;2024-02-21T12:51:13;5.43;;;4.13;;
48516;SDS011;34310;51.904;4.256;2024-02-21T12:53:39;3.85;;;3.50;;
48516;SDS011;34310;51.904;4.256;2024-02-21T12:56:06;4.80;;;4.00;;
48516;SDS011;34310;51.904;4.256;2024-02-21T12:58:33;5.40;;;4.15;;
48516;SDS011;34310;51.904;4.256;2024-02-21T13:00:59;4.47;;;3.80;;
48516;SDS011;34310;51.904;4.256;2024-02-21T13:03:26;4.20;;;3.80;;
48516;SDS011;34310;51.904;4.256;2024-02-21T13:05:58;4.45;;;3.70;;
48516;SDS011;34310;51.904;4.256;2024-02-21T13:08:25;5.18;;;3.95;;
48516;SDS011;34310;51.904;4.256;2024-02-21T13:10:51;5.43;;;3.95;;
48516;SDS011;34310;51.904;4.256;2024-02-21T13:13:21;4.65;;;4.00;;
48516;SDS011;34310;51.904;4.256;2024-02-21T13:15:47;4.28;;;3.80;;
48516;SDS011;34310;51.904;4.256;2024-02-21T13:18:14;6.50;;;4.50;;
48516;SDS011;34310;51.904;4.256;2024-02-21T13:20:40;4.68;;;4.13;;
48516;SDS011;34310;51.904;4.256;2024-02-21T13:23:07;4.93;;;4.15;;
48516;SDS011;34310;51.904;4.256;2024-02-21T13:25:34;4.53;;;3.60;;
48516;SDS011;34310;51.904;4.256;2024-02-21T13:28:00;4.97;;;4.07;;
48516;SDS011;34310;51.904;4.256;2024-02-21T13:30:27;3.83;;;3.40;;
48516;SDS011;34310;51.904;4.256;2024-02-21T13:32:53;3.70;;;3.40;;
48516;SDS011;34310;51.904;4.256;2024-02-21T13:35:20;4.65;;;3.75;;
48516;SDS011;34310;51.904;4.256;2024-02-21T13:37:47;4.97;;;3.80;;
48516;SDS011;34310;51.904;4.256;2024-02-21T13:40:13;4.32;;;3.53;;
48516;SDS011;34310;51.904;4.256;2024-02-21T13:42:40;5.85;;;3.97;;
48516;SDS011;34310;51.904;4.256;2024-02-21T13:45:07;5.82;;;4.00;;
48516;SDS011;34310;51.904;4.256;2024-02-21T13:47:33;4.28;;;3.88;;
48516;SDS011;34310;51.904;4.256;2024-02-21T13:50:00;4.72;;;4.00;;
48516;SDS011;34310;51.904;4.256;2024-02-21T13:52:27;5.22;;;4.72;;
48516;SDS011;34310;51.904;4.256;2024-02-21T13:54:54;5.43;;;4.00;;
48516;SDS011;34310;51.904;4.256;2024-02-21T13:57:20;5.63;;;4.88;;
48516;SDS011;34310;51.904;4.256;2024-02-21T13:59:47;5.63;;;4.22;;
48516;SDS011;34310;51.904;4.256;2024-02-21T14:02:13;5.22;;;4.38;;
48516;SDS011;34310;51.904;4.256;2024-02-21T14:04:40;4.75;;;4.25;;
48516;SDS011;34310;51.904;4.256;2024-02-21T14:07:07;4.85;;;4.25;;
48516;SDS011;34310;51.904;4.256;2024-02-21T14:09:33;4.57;;;3.83;;
48516;SDS011;34310;51.904;4.256;2024-02-21T14:12:03;4.75;;;4.00;;
48516;SDS011;34310;51.904;4.256;2024-02-21T14:14:30;4.97;;;4.20;;
48516;SDS011;34310;51.904;4.256;2024-02-21T14:16:57;4.75;;;4.25;;
48516;SDS011;34310;51.904;4.256;2024-02-21T14:19:23;4.45;;;3.55;;
48516;SDS011;34310;51.904;4.256;2024-02-21T14:21:50;4.88;;;3.75;;
48516;SDS011;34310;51.904;4.256;2024-02-21T14:24:17;4.55;;;3.88;;
48516;SDS011;34310;51.904;4.256;2024-02-21T14:26:43;4.55;;;3.72;;
48516;SDS011;34310;51.904;4.256;2024-02-21T14:29:10;4.20;;;3.80;;
48516;SDS011;34310;51.904;4.256;2024-02-21T14:31:36;4.00;;;3.45;;
48516;SDS011;34310;51.904;4.256;2024-02-21T14:34:03;4.70;;;3.95;;
48516;SDS011;34310;51.904;4.256;2024-02-21T14:36:30;4.75;;;3.53;;
48516;SDS011;34310;51.904;4.256;2024-02-21T14:38:56;4.68;;;3.75;;
48516;SDS011;34310;51.904;4.256;2024-02-21T14:41:23;4.55;;;3.50;;
48516;SDS011;34310;51.904;4.256;2024-02-21T14:43:50;4.10;;;3.42;;
48516;SDS011;34310;51.904;4.256;2024-02-21T14:46:16;4.30;;;3.15;;
48516;SDS011;34310;51.904;4.256;2024-02-21T14:48:43;4.18;;;3.28;;
48516;SDS011;34310;51.904;4.256;2024-02-21T14:51:09;4.22;;;3.30;;
48516;SDS011;34310;51.904;4.256;2024-02-21T14:53:36;3.72;;;3.20;;
48516;SDS011;34310;51.904;4.256;2024-02-21T14:56:03;3.30;;;2.83;;
48516;SDS011;34310;51.904;4.256;2024-02-21T14:58:29;3.20;;;2.90;;
48516;SDS011;34310;51.904;4.256;2024-02-21T15:00:56;3.67;;;3.10;;
48516;SDS011;34310;51.904;4.256;2024-02-21T15:03:23;3.40;;;2.92;;
48516;SDS011;34310;51.904;4.256;2024-02-21T15:05:49;3.80;;;2.70;;
48516;SDS011;34310;51.904;4.256;2024-02-21T15:08:16;3.05;;;2.72;;
48516;SDS011;34310;51.904;4.256;2024-02-21T15:10:43;4.05;;;2.70;;
48516;SDS011;34310;51.904;4.256;2024-02-21T15:13:09;3.42;;;2.78;;
48516;SDS011;34310;51.904;4.256;2024-02-21T15:15:36;3.35;;;2.53;;
48516;SDS011;34310;51.904;4.256;2024-02-21T15:18:02;3.15;;;2.78;;